Flugplatz Uetersen/Heist

METAR EDDH TAF EDDH
5 °C
°C
-
°C
17m
年龄
06:07:09
LT
05:07
UTC
0 ft

1.000

2.000

3.000

4.000

5.000

FEW 1.400
BKN 4.700
VFR
<?= Yii::t('app', 'Wind direction') ?> <?= Yii::t('app', 'of'); ?>
280°
08:09
日出
93%
湿度
风切变
关闭/下雪
RWY可视范围
RWY状况
垂直能见度
最低能见度
CAVOK
趋势
纠正
特别报告
1005 hPa
QNH
METAR EDDH 300450Z AUTO 28008KT 9999 -RA FEW014 BKN047 05/04 Q1005 RESHRA TEMPO RA BKN013
光 雨
1 kt
1 kt
06:00
MVFR
15 kt
07:00
MVFR
15 kt
08:00
MVFR
20 kt
09:00
IFR
20 kt
10:00
IFR
25 kt
11:00
IFR
25 kt
12:00
IFR
25 kt
10 km+
能见度
4.700 ft
天花板
8 kt
metar-taf.com/EDHE

Metar-Taf.com

视觉解码器

我们和第三方通过cookies跟踪您在我们网站上的互联网行为。如果你继续,我们认为你同意我们的饼干政策